Friday, February 23, 2018, 8:07 PM GMT
Back to Local

CYFC, Fredericton, N. B.

Location: , , Canada Lat: 45.867
Local Time: 8:07 PM GMT (20:07 GMT) Lon: -66.533
Time Zone: GMT Elev: 55 ft

Show me the last for .
Show Decoded

2018-02-23 19:00 METAR CYFC 231900Z AUTO 18006KT 150V220 9SM CLR M02/M14 A3053 RMK SLP341 =
2018-02-23 18:00 METAR CYFC 231800Z AUTO 12003KT 070V160 9SM CLR M03/M14 A3058 RMK SLP359 =
2018-02-23 17:00 METAR CYFC 231700Z AUTO 09004KT 070V150 9SM CLR M04/M14 A3064 RMK SLP378 =
2018-02-23 16:00 METAR CYFC 231600Z AUTO 13003KT 080V190 9SM CLR M05/M15 A3068 RMK SLP393 =
2018-02-23 15:00 METAR CYFC 231500Z AUTO VRB02KT 9SM CLR M06/M14 A3072 RMK SLP405 =
2018-02-23 14:00 METAR CYFC 231400Z AUTO 02002KT 9SM CLR M08/M13 A3073 RMK SLP410 =
2018-02-23 13:00 METAR CYFC 231300Z AUTO 00000KT 9SM CLR M11/M14 A3075 RMK SLP415 =
2018-02-23 12:00 METAR CYFC 231200Z AUTO VRB02KT 9SM CLR M14/M16 A3075 RMK SLP416 =
2018-02-23 11:00 METAR CYFC 231100Z AUTO 00000KT 9SM CLR M15/M16 A3073 RMK SLP411 =
2018-02-23 10:00 METAR CYFC 231000Z AUTO 00000KT 9SM CLR M14/M16 A3073 RMK SLP411 =
2018-02-23 09:00 METAR CYFC 230900Z AUTO 00000KT 9SM CLR M13/M14 A3073 RMK SLP410 =
2018-02-23 08:00 METAR CYFC 230800Z AUTO 00000KT 9SM CLR M12/M14 A3074 RMK SLP412 =
2018-02-23 07:00 METAR CYFC 230700Z AUTO 36005KT 9SM CLR M10/M14 A3073 RMK SLP408 =
2018-02-23 06:00 METAR CYFC 230600Z AUTO 00000KT 9SM CLR M10/M13 A3072 RMK SLP406 =
2018-02-23 05:00 METAR CYFC 230500Z AUTO VRB02KT 9SM CLR M10/M13 A3069 RMK SLP395 =
2018-02-23 04:00 METAR CYFC 230400Z AUTO 00000KT 9SM CLR M10/M12 A3067 RMK SLP388 =
2018-02-23 03:00 METAR CYFC 230300Z AUTO 21003KT 9SM CLR M09/M11 A3066 RMK SLP385 =
2018-02-23 02:00 METAR CYFC 230200Z AUTO 22003KT 9SM CLR M07/M12 A3066 RMK SLP384 =
2018-02-23 01:00 METAR CYFC 230100Z AUTO 28004KT 9SM CLR M05/M14 A3065 RMK SLP383 =
2018-02-23 00:00 METAR CYFC 230000Z AUTO 28003KT 9SM FEW190 BKN220 BKN240 M04/M14 A3064 RMK
                 SLP379 =
2018-02-22 23:00 METAR CYFC 222300Z AUTO 27006KT 230V320 9SM OVC160 M04/M15 A3063 RMK SLP375 =
2018-02-22 22:00 METAR CYFC 222200Z AUTO 29008KT 260V320 9SM SCT170 M04/M15 A3062 RMK SLP370 =
2018-02-22 21:00 METAR CYFC 222100Z AUTO 27005KT 240V310 9SM CLR M03/M15 A3060 RMK SLP366 =

Support USWX by starting your Amazon purchase here.